Matagorda, TX

8:47 AM CDT on August 22, 2014 (GMT -0500)
Selkirk Island | Change Station
CLOSE
Current Station
Personal Weather Station
Location: Bay City, TX
Elevation: 43 ft
Nearby Weather Stations
Active Advisory: Heat Advisory Active Notice: Record Report

Elev 43 ft 28.77 °N, 95.99 °W | Updated 3 minutes ago

Scattered Clouds
Scattered Clouds
85.1 °F
Feels Like 98 °F
N
1.7
Wind Variable Wind from South

Today
High -- | Low -- °F
--% Chance of Precip.
Yesterday
High -- | Low -- °F
Precip. -- in
6:56 AM 7:56 PM
Waning Crescent, 8% visible
Pressure 30.06 in
Visibility 10.0 miles
Clouds Few 1800 ft
Scattered Clouds 3100 ft
Heat Index 98 °F
Dew Point 79 °F
Humidity 82%
Rainfall 0.00 in
Snow Depth Not available.
UV 1 out of 12
Pollen 6.50 out of 12
Air Quality Not available.
Flu Activity Not available.
SPECI KPSX 221300Z AUTO 18007KT 10SM FEW018 SCT031 29/25 A3006 RMK AO2 T02940250

More Conditions Fewer Conditions

Pressure 30.06 in
Visibility 10.0 miles
Clouds Few 1800 ft
Scattered Clouds 3100 ft
Heat Index 98 °F
Dew Point 79 °F
Humidity 82%
Rainfall 0.00 in
Snow Depth Not available.
UV 1 out of 12
Pollen 6.50 out of 12
Air Quality Not available.
Flu Activity Not available.
SPECI KPSX 221300Z AUTO 18007KT 10SM FEW018 SCT031 29/25 A3006 RMK AO2 T02940250

More Conditions Fewer Conditions

10-Day Weather Forecast

Almanac

Astronomy

Aug. 22, 2014 Rise Set
Actual Time 6:56 AM CDT 7:56 PM CDT
Civil Twilight 6:32 AM CDT 8:20 PM CDT
Nautical Twilight 6:03 AM CDT 8:49 PM CDT
Astronomical Twilight 5:33 AM CDT 9:19 PM CDT
Moon 4:26 AM CDT 6:01 PM CDT
Length of Visible Light 13h 48m
Length of Day
12h 59m
Tomorrow will be 1m 34s shorter.
Waning Crescent, 8% of the Moon is Illuminated
Today
Waning Crescent
Aug 25
New
Sep 2
First Quarter
Sep 8
Full
Sep 15
Last Quarter

Today's Extremes

State Highs State Lows

Community

WunderPhotos

Upload Photos

1,746,168 photos uploaded!

Nearby

Snow Depth

Station Depth Elevation
No new snow has been reported.

Earthquake Activity

City Distance Mag. Time & Date
No recent earthquake activity has been reported nearby.
Minimum magnitude displayed is 2.5.

Coastal Water Temperatures

Place Temperature
Seadrift, TX 84.9 °F
Rockport, TX 87.1 °F
USCG Freeport, TX 87.1 °F

Nearby Weather Stations